Aérodrome :
LOGIN :

S'inscrire | Disclaimer

   EN    FR    IT 

 










Légende :    VFR   VFR Marginal   IFR   IFR Intensif   IFR Très Intensif
Visi : 
Plafond : 
>= 8 km
>= 3000ft
5 à 8 km
1000 à 3000 ft
1500m à 5 km
500 à 1000 ft
800 à 1500m
200 à 500 ft
< 800m
< 200 ft
Symboles :   Orages  Brouillard  Fortes neiges  Fortes précipitations  Vent > 20 kt
SIGMETs :   Divers  Orages  Givrage  Turbulence  Onde Orograph.  Cendres Volcan.







- Altitude de l'aérodrome : 299 ft
- Code IATA : EDM
- Voir les cartes d'approche


LFRI - La Roche Sur Yon - Les Ajoncs

DERNIER METAR :
  • 300300Z AUTO 13012KT CAVOK 11/01 Q1002

METARs EXPIRÉS :
  • 300230Z AUTO 14011KT CAVOK 11/01 Q1003
  • 300200Z AUTO 14011KT CAVOK 11/00 Q1003
  • 300130Z AUTO 14010KT CAVOK 11/00 Q1003
  • 300100Z AUTO 14009KT CAVOK 11/00 Q1004
  • 300030Z AUTO 13009KT CAVOK 11/00 Q1004

TAF TAF LFRI
Valide du 29 à 18h jusqu'au 30 à 18h UTC


291700Z 2918/3018 15010KT 9999 FEW040
FM300500 16012KT 9999 RA SCT015 BKN050
TEMPO 3005/3009 15015G25KT 3000 RA BKN014
BECMG 3009/3011 22012KT SCT050CB
TEMPO 3009/3018 22015G30KT 4000 RA BKN014 BKN050CB
PROB40
TEMPO 3012/3018 2000 TSRA
Pas de NOTAMs connus pour ce terrain.
1 SIGMET publié pour la FIR Brest (LFRR) :
 
Orages noyés dans la masse
LFRR SIGMET 1 VALID 300300/300500 LFPW
LFRR BREST FIR/UIR EMBD TS OBS WI N4630 W00130 - N4530 W00145 - N4545 W00330 - N4800 W00415 - N4730 W00230 TOP FL280 MOV NE 20KT NC=



MET'MAP, la Météo Aéronautique d'un coup d'oeil ! - Copyright ORBIFLY Décembre 2007 - Disclaimer

ORBIFLY MET'MAP TEAM :

Programmation & Développement : Alexandra Zaïnal
Conception & Développement : Baudouin d'Aumeries
Co-Programmation & Développement : Marc-Olivier Méhu
Soutien technique & logistique : Manuel Goepfert

Contact : metmap@orbifly.com




SOURCES & CREDITS :

   NOAA